Embudo, NM

10:27 PM MDT on August 28, 2014 (GMT -0600)
Los Alamos | Change Station
CLOSE
Current Station
Airport
Location: Los Alamos,
Elevation: 7172 ft
Nearby Weather Stations

Elev 7172 ft 35.88 °N, 106.27 °W | Updated 12 minutes ago

Scattered Clouds
Scattered Clouds
64 °F
Feels Like 64 °F
N
6
Wind Variable Wind from NW

Today
High -- | Low -- °F
--% Chance of Precip.
Yesterday
High -- | Low -- °F
Precip. -- in
6:32 AM 7:37 PM
Waxing Crescent, 12% visible
Pressure 30.27 in
Visibility 10.0 miles
Clouds Scattered Clouds 9000 ft
Dew Point 40 °F
Humidity 41%
Rainfall 0.00 in
Snow Depth Not available.
UV 0 out of 12
Pollen 8.40 out of 12
Air Quality Not available.
Flu Activity Not available.
METAR KLAM 290415Z AUTO 31005KT 10SM SCT090 18/04 A3027 RMK AO2 T01790043

More Conditions Fewer Conditions

Pressure 30.27 in
Visibility 10.0 miles
Clouds Scattered Clouds 9000 ft
Dew Point 40 °F
Humidity 41%
Rainfall 0.00 in
Snow Depth Not available.
UV 0 out of 12
Pollen 8.40 out of 12
Air Quality Not available.
Flu Activity Not available.
METAR KLAM 290415Z AUTO 31005KT 10SM SCT090 18/04 A3027 RMK AO2 T01790043

More Conditions Fewer Conditions

10-Day Weather Forecast

Almanac

Astronomy

Aug. 28, 2014 Rise Set
Actual Time 6:32 AM MDT 7:37 PM MDT
Civil Twilight 6:06 AM MDT 8:03 PM MDT
Nautical Twilight 5:34 AM MDT 8:34 PM MDT
Astronomical Twilight 5:01 AM MDT 9:07 PM MDT
Moon 9:20 AM MDT (8/28) 9:09 PM MDT (8/28)
Length of Visible Light 13h 57m
Length of Day
13h 04m
Tomorrow will be 2m 10s shorter.
Waxing Crescent, 12% of the Moon is Illuminated
Aug 29
Waxing Crescent
Sep 2
First Quarter
Sep 8
Full
Sep 15
Last Quarter
Sep 24
New

Today's Extremes

State Highs State Lows

Community

WunderPhotos

Upload Photos

1,748,185 photos uploaded!

Nearby

Snow Depth

Station Depth Elevation
Gallegos Peak 0 in 9800 ft
Quemazon 1 in 9500 ft
Bateman 0 in 9300 ft
Wesner Springs 1 in 11120 ft
Hopewell 0 in 10000 ft

Earthquake Activity

City Distance Mag. Time & Date
No recent earthquake activity has been reported nearby.
Minimum magnitude displayed is 2.5.

Coastal Water Temperatures

Place Temperature
No Stations Reporting

Nearby Weather Stations